sensor_id;sensor_type;location;lat;lon;timestamp;P1;durP1;ratioP1;P2;durP2;ratioP2
10497;SDS011;5296;51.060;13.750;2023-05-10T00:04:23;2.83;;;2.15;;
10497;SDS011;5296;51.060;13.750;2023-05-10T00:09:28;2.08;;;1.88;;
10497;SDS011;5296;51.060;13.750;2023-05-10T00:14:30;3.17;;;2.10;;
10497;SDS011;5296;51.060;13.750;2023-05-10T00:19:31;2.25;;;2.05;;
10497;SDS011;5296;51.060;13.750;2023-05-10T00:24:33;2.25;;;2.05;;
10497;SDS011;5296;51.060;13.750;2023-05-10T00:29:35;4.47;;;2.33;;
10497;SDS011;5296;51.060;13.750;2023-05-10T00:34:36;2.58;;;1.90;;
10497;SDS011;5296;51.060;13.750;2023-05-10T00:39:39;3.28;;;2.17;;
10497;SDS011;5296;51.060;13.750;2023-05-10T00:44:41;2.35;;;1.90;;
10497;SDS011;5296;51.060;13.750;2023-05-10T00:49:43;2.67;;;2.15;;
10497;SDS011;5296;51.060;13.750;2023-05-10T00:54:45;1.75;;;1.65;;
10497;SDS011;5296;51.060;13.750;2023-05-10T00:59:47;2.05;;;1.85;;
10497;SDS011;5296;51.060;13.750;2023-05-10T01:04:49;2.30;;;2.10;;
10497;SDS011;5296;51.060;13.750;2023-05-10T01:09:51;3.75;;;2.00;;
10497;SDS011;5296;51.060;13.750;2023-05-10T01:14:53;2.15;;;1.95;;
10497;SDS011;5296;51.060;13.750;2023-05-10T01:19:55;4.00;;;2.05;;
10497;SDS011;5296;51.060;13.750;2023-05-10T01:46:40;2.53;;;1.90;;
10497;SDS011;5296;51.060;13.750;2023-05-10T01:51:44;1.88;;;1.77;;
10497;SDS011;5296;51.060;13.750;2023-05-10T01:56:55;2.17;;;1.80;;
10497;SDS011;5296;51.060;13.750;2023-05-10T02:02:01;1.90;;;1.75;;
10497;SDS011;5296;51.060;13.750;2023-05-10T02:07:03;3.45;;;1.92;;
10497;SDS011;5296;51.060;13.750;2023-05-10T02:12:06;2.13;;;1.92;;
10497;SDS011;5296;51.060;13.750;2023-05-10T02:17:09;2.83;;;1.90;;
10497;SDS011;5296;51.060;13.750;2023-05-10T02:22:11;2.10;;;1.80;;
10497;SDS011;5296;51.060;13.750;2023-05-10T02:27:13;3.22;;;2.00;;
10497;SDS011;5296;51.060;13.750;2023-05-10T02:32:16;2.00;;;1.80;;
10497;SDS011;5296;51.060;13.750;2023-05-10T02:37:19;2.00;;;1.90;;
10497;SDS011;5296;51.060;13.750;2023-05-10T02:42:27;1.83;;;1.73;;
10497;SDS011;5296;51.060;13.750;2023-05-10T02:47:30;2.15;;;1.92;;
10497;SDS011;5296;51.060;13.750;2023-05-10T02:52:51;2.75;;;2.03;;
10497;SDS011;5296;51.060;13.750;2023-05-10T02:57:57;2.00;;;1.90;;
10497;SDS011;5296;51.060;13.750;2023-05-10T03:03:00;2.25;;;2.05;;
10497;SDS011;5296;51.060;13.750;2023-05-10T03:08:02;2.15;;;1.95;;
10497;SDS011;5296;51.060;13.750;2023-05-10T03:18:23;2.50;;;2.30;;
10497;SDS011;5296;51.060;13.750;2023-05-10T03:23:40;5.65;;;2.20;;
10497;SDS011;5296;51.060;13.750;2023-05-10T03:28:43;3.25;;;1.80;;
10497;SDS011;5296;51.060;13.750;2023-05-10T03:33:48;2.45;;;2.25;;
10497;SDS011;5296;51.060;13.750;2023-05-10T03:38:56;3.28;;;2.60;;
10497;SDS011;5296;51.060;13.750;2023-05-10T03:43:58;2.05;;;1.92;;
10497;SDS011;5296;51.060;13.750;2023-05-10T03:49:00;2.40;;;2.20;;
10497;SDS011;5296;51.060;13.750;2023-05-10T03:54:01;2.03;;;1.83;;
10497;SDS011;5296;51.060;13.750;2023-05-10T03:59:04;3.83;;;1.90;;
10497;SDS011;5296;51.060;13.750;2023-05-10T04:04:09;4.43;;;2.20;;
10497;SDS011;5296;51.060;13.750;2023-05-10T04:09:11;2.75;;;1.90;;
10497;SDS011;5296;51.060;13.750;2023-05-10T04:14:13;2.10;;;1.90;;
10497;SDS011;5296;51.060;13.750;2023-05-10T04:19:14;2.70;;;1.90;;
10497;SDS011;5296;51.060;13.750;2023-05-10T04:24:16;3.40;;;2.10;;
10497;SDS011;5296;51.060;13.750;2023-05-10T04:29:18;2.10;;;1.90;;
10497;SDS011;5296;51.060;13.750;2023-05-10T04:34:20;3.17;;;2.10;;
10497;SDS011;5296;51.060;13.750;2023-05-10T04:39:22;5.45;;;2.05;;
10497;SDS011;5296;51.060;13.750;2023-05-10T04:44:23;3.63;;;1.92;;
10497;SDS011;5296;51.060;13.750;2023-05-10T04:49:25;2.25;;;1.80;;
10497;SDS011;5296;51.060;13.750;2023-05-10T04:54:27;6.45;;;2.20;;
10497;SDS011;5296;51.060;13.750;2023-05-10T04:59:28;3.38;;;1.88;;
10497;SDS011;5296;51.060;13.750;2023-05-10T05:04:30;2.17;;;1.98;;
10497;SDS011;5296;51.060;13.750;2023-05-10T05:09:32;4.68;;;2.00;;
10497;SDS011;5296;51.060;13.750;2023-05-10T05:14:34;1.90;;;1.80;;
10497;SDS011;5296;51.060;13.750;2023-05-10T05:19:35;4.28;;;2.20;;
10497;SDS011;5296;51.060;13.750;2023-05-10T05:24:37;2.00;;;1.90;;
10497;SDS011;5296;51.060;13.750;2023-05-10T05:29:39;2.65;;;1.83;;
10497;SDS011;5296;51.060;13.750;2023-05-10T05:34:41;4.05;;;1.95;;
10497;SDS011;5296;51.060;13.750;2023-05-10T05:39:42;3.72;;;1.80;;
10497;SDS011;5296;51.060;13.750;2023-05-10T05:44:44;2.95;;;2.25;;
10497;SDS011;5296;51.060;13.750;2023-05-10T05:49:46;2.90;;;2.10;;
10497;SDS011;5296;51.060;13.750;2023-05-10T05:54:48;3.47;;;1.80;;
10497;SDS011;5296;51.060;13.750;2023-05-10T05:59:50;2.75;;;2.00;;
10497;SDS011;5296;51.060;13.750;2023-05-10T06:04:51;2.30;;;2.10;;
10497;SDS011;5296;51.060;13.750;2023-05-10T06:09:53;3.72;;;2.00;;
10497;SDS011;5296;51.060;13.750;2023-05-10T06:14:54;2.30;;;2.10;;
10497;SDS011;5296;51.060;13.750;2023-05-10T06:19:56;2.33;;;1.88;;
10497;SDS011;5296;51.060;13.750;2023-05-10T06:24:58;1.95;;;1.83;;
10497;SDS011;5296;51.060;13.750;2023-05-10T06:29:59;2.70;;;2.00;;
10497;SDS011;5296;51.060;13.750;2023-05-10T06:35:13;3.97;;;1.75;;
10497;SDS011;5296;51.060;13.750;2023-05-10T06:40:14;2.08;;;1.88;;
10497;SDS011;5296;51.060;13.750;2023-05-10T06:45:16;3.53;;;2.08;;
10497;SDS011;5296;51.060;13.750;2023-05-10T06:50:18;2.70;;;2.10;;
10497;SDS011;5296;51.060;13.750;2023-05-10T06:55:20;3.63;;;2.53;;
10497;SDS011;5296;51.060;13.750;2023-05-10T07:00:22;3.55;;;2.15;;
10497;SDS011;5296;51.060;13.750;2023-05-10T07:05:23;6.35;;;2.50;;
10497;SDS011;5296;51.060;13.750;2023-05-10T07:10:25;4.18;;;2.60;;
10497;SDS011;5296;51.060;13.750;2023-05-10T07:15:30;5.57;;;2.70;;
10497;SDS011;5296;51.060;13.750;2023-05-10T07:20:31;6.35;;;2.28;;
10497;SDS011;5296;51.060;13.750;2023-05-10T07:25:33;4.95;;;2.40;;
10497;SDS011;5296;51.060;13.750;2023-05-10T07:30:35;5.50;;;2.33;;
10497;SDS011;5296;51.060;13.750;2023-05-10T07:35:37;7.88;;;2.42;;
10497;SDS011;5296;51.060;13.750;2023-05-10T07:40:39;3.92;;;2.60;;
10497;SDS011;5296;51.060;13.750;2023-05-10T07:45:41;2.88;;;2.30;;
10497;SDS011;5296;51.060;13.750;2023-05-10T07:50:43;4.22;;;2.60;;
10497;SDS011;5296;51.060;13.750;2023-05-10T07:55:49;3.65;;;2.30;;
10497;SDS011;5296;51.060;13.750;2023-05-10T08:00:51;5.65;;;2.60;;
10497;SDS011;5296;51.060;13.750;2023-05-10T08:05:53;3.65;;;2.60;;
10497;SDS011;5296;51.060;13.750;2023-05-10T08:10:54;3.50;;;2.35;;
10497;SDS011;5296;51.060;13.750;2023-05-10T08:15:56;4.75;;;2.33;;
10497;SDS011;5296;51.060;13.750;2023-05-10T08:20:58;3.38;;;2.20;;
10497;SDS011;5296;51.060;13.750;2023-05-10T08:25:59;2.50;;;2.30;;
10497;SDS011;5296;51.060;13.750;2023-05-10T08:31:01;5.07;;;2.45;;
10497;SDS011;5296;51.060;13.750;2023-05-10T08:36:03;3.90;;;2.40;;
10497;SDS011;5296;51.060;13.750;2023-05-10T08:41:05;2.75;;;2.50;;
10497;SDS011;5296;51.060;13.750;2023-05-10T08:46:07;3.22;;;2.30;;
10497;SDS011;5296;51.060;13.750;2023-05-10T08:51:09;2.75;;;2.55;;
10497;SDS011;5296;51.060;13.750;2023-05-10T08:56:11;4.78;;;2.90;;
10497;SDS011;5296;51.060;13.750;2023-05-10T09:01:13;4.65;;;2.90;;
10497;SDS011;5296;51.060;13.750;2023-05-10T09:06:15;4.20;;;2.40;;
10497;SDS011;5296;51.060;13.750;2023-05-10T09:11:17;3.03;;;2.65;;
10497;SDS011;5296;51.060;13.750;2023-05-10T09:16:18;2.70;;;2.50;;
10497;SDS011;5296;51.060;13.750;2023-05-10T09:21:22;3.53;;;2.70;;
10497;SDS011;5296;51.060;13.750;2023-05-10T09:26:24;6.82;;;2.58;;
10497;SDS011;5296;51.060;13.750;2023-05-10T09:36:57;4.25;;;2.90;;
10497;SDS011;5296;51.060;13.750;2023-05-10T09:42:03;3.35;;;3.05;;
10497;SDS011;5296;51.060;13.750;2023-05-10T09:47:09;2.60;;;2.40;;
10497;SDS011;5296;51.060;13.750;2023-05-10T09:52:10;3.15;;;2.80;;
10497;SDS011;5296;51.060;13.750;2023-05-10T09:57:19;4.38;;;2.80;;
10497;SDS011;5296;51.060;13.750;2023-05-10T10:02:28;3.15;;;2.85;;
10497;SDS011;5296;51.060;13.750;2023-05-10T10:07:30;3.08;;;2.88;;
10497;SDS011;5296;51.060;13.750;2023-05-10T10:12:32;6.10;;;2.80;;
10497;SDS011;5296;51.060;13.750;2023-05-10T10:17:34;3.00;;;2.80;;
10497;SDS011;5296;51.060;13.750;2023-05-10T10:22:37;3.67;;;2.72;;
10497;SDS011;5296;51.060;13.750;2023-05-10T10:43:49;3.10;;;2.78;;
10497;SDS011;5296;51.060;13.750;2023-05-10T10:49:08;5.03;;;2.80;;
10497;SDS011;5296;51.060;13.750;2023-05-10T10:54:10;3.13;;;2.63;;
10497;SDS011;5296;51.060;13.750;2023-05-10T10:59:12;4.00;;;2.90;;
10497;SDS011;5296;51.060;13.750;2023-05-10T11:04:28;3.10;;;2.80;;
10497;SDS011;5296;51.060;13.750;2023-05-10T11:09:29;4.07;;;2.85;;
10497;SDS011;5296;51.060;13.750;2023-05-10T11:14:40;2.95;;;2.65;;
10497;SDS011;5296;51.060;13.750;2023-05-10T11:19:57;3.75;;;2.83;;
10497;SDS011;5296;51.060;13.750;2023-05-10T11:25:08;3.78;;;2.70;;
10497;SDS011;5296;51.060;13.750;2023-05-10T11:30:10;3.20;;;3.00;;
10497;SDS011;5296;51.060;13.750;2023-05-10T11:35:12;2.70;;;2.50;;
10497;SDS011;5296;51.060;13.750;2023-05-10T11:40:14;4.97;;;2.75;;
10497;SDS011;5296;51.060;13.750;2023-05-10T11:45:16;2.78;;;2.58;;
10497;SDS011;5296;51.060;13.750;2023-05-10T11:50:18;3.00;;;2.70;;
10497;SDS011;5296;51.060;13.750;2023-05-10T11:55:20;2.70;;;2.50;;
10497;SDS011;5296;51.060;13.750;2023-05-10T12:00:22;3.08;;;2.80;;
10497;SDS011;5296;51.060;13.750;2023-05-10T12:05:23;4.00;;;3.05;;
10497;SDS011;5296;51.060;13.750;2023-05-10T12:10:26;3.05;;;2.80;;
10497;SDS011;5296;51.060;13.750;2023-05-10T12:15:28;2.95;;;2.60;;
10497;SDS011;5296;51.060;13.750;2023-05-10T12:20:29;4.05;;;2.45;;
10497;SDS011;5296;51.060;13.750;2023-05-10T12:25:32;4.35;;;2.80;;
10497;SDS011;5296;51.060;13.750;2023-05-10T12:30:35;2.65;;;2.45;;
10497;SDS011;5296;51.060;13.750;2023-05-10T12:35:50;5.40;;;2.88;;
10497;SDS011;5296;51.060;13.750;2023-05-10T12:40:56;3.63;;;3.00;;
10497;SDS011;5296;51.060;13.750;2023-05-10T12:45:58;3.95;;;2.50;;
10497;SDS011;5296;51.060;13.750;2023-05-10T12:51:06;4.32;;;2.90;;
10497;SDS011;5296;51.060;13.750;2023-05-10T12:56:10;2.60;;;2.40;;
10497;SDS011;5296;51.060;13.750;2023-05-10T13:01:12;5.53;;;3.10;;
10497;SDS011;5296;51.060;13.750;2023-05-10T13:06:13;4.88;;;2.70;;
10497;SDS011;5296;51.060;13.750;2023-05-10T13:11:15;3.80;;;3.00;;
10497;SDS011;5296;51.060;13.750;2023-05-10T13:16:18;3.88;;;3.28;;
10497;SDS011;5296;51.060;13.750;2023-05-10T13:21:19;3.67;;;2.90;;
10497;SDS011;5296;51.060;13.750;2023-05-10T13:26:21;3.97;;;2.97;;
10497;SDS011;5296;51.060;13.750;2023-05-10T13:31:23;5.50;;;2.83;;
10497;SDS011;5296;51.060;13.750;2023-05-10T13:36:24;3.30;;;2.97;;
10497;SDS011;5296;51.060;13.750;2023-05-10T13:41:26;6.45;;;3.08;;
10497;SDS011;5296;51.060;13.750;2023-05-10T13:46:28;3.47;;;2.70;;
10497;SDS011;5296;51.060;13.750;2023-05-10T13:51:31;2.90;;;2.70;;
10497;SDS011;5296;51.060;13.750;2023-05-10T13:56:32;3.53;;;2.60;;
10497;SDS011;5296;51.060;13.750;2023-05-10T14:01:34;2.90;;;2.70;;
10497;SDS011;5296;51.060;13.750;2023-05-10T14:06:36;2.85;;;2.63;;
10497;SDS011;5296;51.060;13.750;2023-05-10T14:11:38;4.35;;;2.78;;
10497;SDS011;5296;51.060;13.750;2023-05-10T14:16:44;3.08;;;2.58;;
10497;SDS011;5296;51.060;13.750;2023-05-10T14:21:46;3.55;;;2.85;;
10497;SDS011;5296;51.060;13.750;2023-05-10T14:26:47;3.70;;;2.42;;
10497;SDS011;5296;51.060;13.750;2023-05-10T14:31:49;4.40;;;2.97;;
10497;SDS011;5296;51.060;13.750;2023-05-10T14:36:51;2.88;;;2.55;;
10497;SDS011;5296;51.060;13.750;2023-05-10T14:41:52;3.33;;;2.45;;
10497;SDS011;5296;51.060;13.750;2023-05-10T14:46:54;3.55;;;2.63;;
10497;SDS011;5296;51.060;13.750;2023-05-10T14:51:56;3.22;;;2.45;;
10497;SDS011;5296;51.060;13.750;2023-05-10T14:56:57;3.30;;;3.00;;
10497;SDS011;5296;51.060;13.750;2023-05-10T15:01:59;3.70;;;2.88;;
10497;SDS011;5296;51.060;13.750;2023-05-10T15:07:01;5.57;;;3.00;;
10497;SDS011;5296;51.060;13.750;2023-05-10T15:12:03;3.28;;;2.60;;
10497;SDS011;5296;51.060;13.750;2023-05-10T15:17:05;7.00;;;2.78;;
10497;SDS011;5296;51.060;13.750;2023-05-10T15:22:08;5.55;;;2.70;;
10497;SDS011;5296;51.060;13.750;2023-05-10T15:27:09;2.63;;;2.42;;
10497;SDS011;5296;51.060;13.750;2023-05-10T15:32:18;4.43;;;2.78;;
10497;SDS011;5296;51.060;13.750;2023-05-10T15:37:19;4.18;;;2.70;;
10497;SDS011;5296;51.060;13.750;2023-05-10T15:42:21;3.17;;;2.55;;
10497;SDS011;5296;51.060;13.750;2023-05-10T15:47:23;5.53;;;2.53;;
10497;SDS011;5296;51.060;13.750;2023-05-10T15:52:25;4.53;;;2.45;;
10497;SDS011;5296;51.060;13.750;2023-05-10T15:57:26;2.63;;;2.42;;
10497;SDS011;5296;51.060;13.750;2023-05-10T16:02:28;3.72;;;2.90;;
10497;SDS011;5296;51.060;13.750;2023-05-10T16:07:30;4.82;;;2.60;;
10497;SDS011;5296;51.060;13.750;2023-05-10T16:12:32;2.70;;;2.50;;
10497;SDS011;5296;51.060;13.750;2023-05-10T16:17:34;3.25;;;2.50;;
10497;SDS011;5296;51.060;13.750;2023-05-10T16:22:36;3.28;;;2.42;;
10497;SDS011;5296;51.060;13.750;2023-05-10T16:27:38;5.68;;;2.45;;
10497;SDS011;5296;51.060;13.750;2023-05-10T16:32:40;3.15;;;2.70;;
10497;SDS011;5296;51.060;13.750;2023-05-10T16:37:41;2.83;;;2.63;;
10497;SDS011;5296;51.060;13.750;2023-05-10T16:42:43;3.67;;;2.80;;
10497;SDS011;5296;51.060;13.750;2023-05-10T16:47:45;3.63;;;2.72;;
10497;SDS011;5296;51.060;13.750;2023-05-10T16:52:46;2.83;;;2.63;;
10497;SDS011;5296;51.060;13.750;2023-05-10T16:57:48;2.85;;;2.65;;
10497;SDS011;5296;51.060;13.750;2023-05-10T17:02:50;3.05;;;2.75;;
10497;SDS011;5296;51.060;13.750;2023-05-10T17:07:52;3.67;;;3.00;;
10497;SDS011;5296;51.060;13.750;2023-05-10T17:12:53;2.90;;;2.70;;
10497;SDS011;5296;51.060;13.750;2023-05-10T17:17:55;3.20;;;2.70;;
10497;SDS011;5296;51.060;13.750;2023-05-10T17:22:57;3.40;;;3.10;;
10497;SDS011;5296;51.060;13.750;2023-05-10T17:27:59;3.30;;;3.00;;
10497;SDS011;5296;51.060;13.750;2023-05-10T17:33:01;3.10;;;2.80;;
10497;SDS011;5296;51.060;13.750;2023-05-10T17:38:02;2.88;;;2.67;;
10497;SDS011;5296;51.060;13.750;2023-05-10T17:43:04;3.17;;;2.88;;
10497;SDS011;5296;51.060;13.750;2023-05-10T17:48:06;3.13;;;2.50;;
10497;SDS011;5296;51.060;13.750;2023-05-10T17:53:08;2.83;;;2.50;;
10497;SDS011;5296;51.060;13.750;2023-05-10T17:58:10;2.08;;;1.92;;
10497;SDS011;5296;51.060;13.750;2023-05-10T18:03:12;2.85;;;2.03;;
10497;SDS011;5296;51.060;13.750;2023-05-10T18:08:13;2.85;;;2.10;;
10497;SDS011;5296;51.060;13.750;2023-05-10T18:13:15;2.00;;;1.88;;
10497;SDS011;5296;51.060;13.750;2023-05-10T18:18:17;1.88;;;1.77;;
10497;SDS011;5296;51.060;13.750;2023-05-10T18:23:19;1.70;;;1.50;;
10497;SDS011;5296;51.060;13.750;2023-05-10T18:28:21;1.73;;;1.63;;
10497;SDS011;5296;51.060;13.750;2023-05-10T18:33:24;3.28;;;1.60;;
10497;SDS011;5296;51.060;13.750;2023-05-10T18:38:26;1.33;;;1.27;;
10497;SDS011;5296;51.060;13.750;2023-05-10T18:43:27;1.63;;;1.52;;
10497;SDS011;5296;51.060;13.750;2023-05-10T18:48:29;1.85;;;1.60;;
10497;SDS011;5296;51.060;13.750;2023-05-10T18:53:31;1.90;;;1.80;;
10497;SDS011;5296;51.060;13.750;2023-05-10T18:58:33;1.73;;;1.63;;
10497;SDS011;5296;51.060;13.750;2023-05-10T19:03:36;1.88;;;1.52;;
10497;SDS011;5296;51.060;13.750;2023-05-10T19:08:37;1.58;;;1.48;;
10497;SDS011;5296;51.060;13.750;2023-05-10T19:13:39;2.28;;;1.90;;
10497;SDS011;5296;51.060;13.750;2023-05-10T19:18:41;2.35;;;2.15;;
10497;SDS011;5296;51.060;13.750;2023-05-10T19:23:43;3.47;;;2.13;;
10497;SDS011;5296;51.060;13.750;2023-05-10T19:28:44;2.65;;;2.25;;
10497;SDS011;5296;51.060;13.750;2023-05-10T19:33:46;4.18;;;2.30;;
10497;SDS011;5296;51.060;13.750;2023-05-10T19:38:48;2.30;;;2.10;;
10497;SDS011;5296;51.060;13.750;2023-05-10T19:43:50;2.58;;;2.33;;
10497;SDS011;5296;51.060;13.750;2023-05-10T19:48:52;2.13;;;2.03;;
10497;SDS011;5296;51.060;13.750;2023-05-10T19:53:53;2.47;;;2.28;;
10497;SDS011;5296;51.060;13.750;2023-05-10T19:58:55;3.47;;;2.30;;
10497;SDS011;5296;51.060;13.750;2023-05-10T20:03:57;3.72;;;2.72;;
10497;SDS011;5296;51.060;13.750;2023-05-10T20:08:58;4.10;;;3.05;;
10497;SDS011;5296;51.060;13.750;2023-05-10T20:14:00;6.53;;;3.13;;
10497;SDS011;5296;51.060;13.750;2023-05-10T20:19:02;4.03;;;3.13;;
10497;SDS011;5296;51.060;13.750;2023-05-10T20:24:04;3.20;;;2.78;;
10497;SDS011;5296;51.060;13.750;2023-05-10T20:29:06;3.78;;;3.00;;
10497;SDS011;5296;51.060;13.750;2023-05-10T20:34:09;4.32;;;3.30;;
10497;SDS011;5296;51.060;13.750;2023-05-10T20:39:11;4.20;;;3.10;;
10497;SDS011;5296;51.060;13.750;2023-05-10T20:44:13;4.38;;;3.20;;
10497;SDS011;5296;51.060;13.750;2023-05-10T20:49:14;5.50;;;3.38;;
10497;SDS011;5296;51.060;13.750;2023-05-10T20:54:16;5.57;;;3.40;;
10497;SDS011;5296;51.060;13.750;2023-05-10T20:59:18;3.83;;;3.40;;
10497;SDS011;5296;51.060;13.750;2023-05-10T21:04:19;3.70;;;3.25;;
10497;SDS011;5296;51.060;13.750;2023-05-10T21:09:21;3.25;;;2.95;;
10497;SDS011;5296;51.060;13.750;2023-05-10T21:14:23;4.45;;;3.85;;
10497;SDS011;5296;51.060;13.750;2023-05-10T21:19:24;7.03;;;3.92;;
10497;SDS011;5296;51.060;13.750;2023-05-10T21:24:26;4.70;;;3.40;;
10497;SDS011;5296;51.060;13.750;2023-05-10T21:29:27;3.75;;;3.45;;
10497;SDS011;5296;51.060;13.750;2023-05-10T21:34:29;6.03;;;3.47;;
10497;SDS011;5296;51.060;13.750;2023-05-10T21:39:31;7.45;;;4.22;;
10497;SDS011;5296;51.060;13.750;2023-05-10T21:44:33;4.80;;;3.90;;
10497;SDS011;5296;51.060;13.750;2023-05-10T21:49:35;4.05;;;3.65;;
10497;SDS011;5296;51.060;13.750;2023-05-10T21:54:37;4.05;;;3.63;;
10497;SDS011;5296;51.060;13.750;2023-05-10T21:59:39;4.15;;;3.75;;
10497;SDS011;5296;51.060;13.750;2023-05-10T22:04:40;4.22;;;3.80;;
10497;SDS011;5296;51.060;13.750;2023-05-10T22:09:42;3.90;;;3.50;;
10497;SDS011;5296;51.060;13.750;2023-05-10T22:14:44;4.30;;;3.88;;
10497;SDS011;5296;51.060;13.750;2023-05-10T22:19:46;5.28;;;3.70;;
10497;SDS011;5296;51.060;13.750;2023-05-10T22:24:48;3.80;;;3.45;;
10497;SDS011;5296;51.060;13.750;2023-05-10T22:29:49;4.38;;;3.47;;
10497;SDS011;5296;51.060;13.750;2023-05-10T22:34:51;4.50;;;3.83;;
10497;SDS011;5296;51.060;13.750;2023-05-10T22:39:53;4.55;;;3.92;;
10497;SDS011;5296;51.060;13.750;2023-05-10T22:44:55;4.60;;;4.20;;
10497;SDS011;5296;51.060;13.750;2023-05-10T22:49:56;4.88;;;3.78;;
10497;SDS011;5296;51.060;13.750;2023-05-10T22:54:58;5.13;;;3.88;;
10497;SDS011;5296;51.060;13.750;2023-05-10T23:00:00;4.32;;;3.90;;
10497;SDS011;5296;51.060;13.750;2023-05-10T23:05:04;4.32;;;3.92;;
10497;SDS011;5296;51.060;13.750;2023-05-10T23:10:07;6.35;;;3.78;;
10497;SDS011;5296;51.060;13.750;2023-05-10T23:15:09;3.90;;;3.60;;
10497;SDS011;5296;51.060;13.750;2023-05-10T23:20:11;3.75;;;3.45;;
10497;SDS011;5296;51.060;13.750;2023-05-10T23:25:13;5.38;;;3.85;;
10497;SDS011;5296;51.060;13.750;2023-05-10T23:30:15;4.82;;;3.40;;
10497;SDS011;5296;51.060;13.750;2023-05-10T23:35:17;3.95;;;3.65;;
10497;SDS011;5296;51.060;13.750;2023-05-10T23:40:18;4.75;;;4.35;;
10497;SDS011;5296;51.060;13.750;2023-05-10T23:45:20;4.68;;;3.72;;
10497;SDS011;5296;51.060;13.750;2023-05-10T23:50:22;4.07;;;3.75;;
10497;SDS011;5296;51.060;13.750;2023-05-10T23:55:24;5.88;;;4.35;;
